Guntown, Mississippi
Current Conditions -  °F | °C
As of 12:14 AM on Monday 22 Dec 2014 (Local Time) from KTUP Reporting Station
Overcast Overcast  
Wind Chill: 45°   Ceiling: 1300
Heat Index: 48°   Visibility: 7mi
Dew Point: 45°   Wind: 6mph
Humidity: 89%   Direction: 190°S
Pressure: 29.97"   Gusts: NA
Location:  34.44°N, 88.66°W
Report Text: KTUP 220614Z AUTO 19005KT 7SM BKN013 OVC025 09/07 A2997 RMK AO2 T00890072
Loading
Personal Weather Stations






























Interactive Weather Map New forecast layout! Learn more

10-Day Weather Forecast

Advertisements
Track Severe Weather on mobile